createdAt,value
2022-10-18T00:01:58.418Z,12.84
2022-10-18T00:04:31.355Z,12.77
2022-10-18T00:07:04.365Z,12.71
2022-10-18T00:09:37.164Z,12.81
2022-10-18T00:12:09.996Z,12.92
2022-10-18T00:14:44.219Z,12.90
2022-10-18T00:17:17.053Z,12.78
2022-10-18T00:19:50.417Z,12.77
2022-10-18T00:22:23.785Z,12.70
2022-10-18T00:24:56.551Z,12.62
2022-10-18T00:27:30.644Z,12.61
2022-10-18T00:30:05.223Z,12.55
2022-10-18T00:32:38.477Z,12.41
2022-10-18T00:35:11.292Z,12.28
2022-10-18T00:37:44.121Z,12.17
2022-10-18T00:40:16.938Z,12.08
2022-10-18T00:42:49.744Z,12.00
2022-10-18T00:45:25.816Z,11.91
2022-10-18T00:48:06.290Z,11.90
2022-10-18T00:50:39.600Z,11.94
2022-10-18T00:53:17.392Z,11.93
2022-10-18T00:55:50.755Z,11.94
2022-10-18T00:58:23.677Z,11.93
2022-10-18T01:03:20.711Z,11.70
2022-10-18T01:05:53.737Z,11.62
2022-10-18T01:08:41.665Z,11.57
2022-10-18T01:11:32.990Z,11.56
2022-10-18T01:14:22.569Z,11.55
2022-10-18T01:17:08.794Z,11.65
2022-10-18T01:20:16.630Z,11.69
2022-10-18T01:22:58.391Z,11.66
2022-10-18T01:25:41.266Z,11.54
2022-10-18T01:28:31.436Z,11.45
2022-10-18T01:31:09.857Z,11.41
2022-10-18T01:33:47.156Z,11.36
2022-10-18T01:36:24.503Z,11.32
2022-10-18T01:39:01.224Z,11.28
2022-10-18T01:41:36.868Z,11.25
2022-10-18T01:44:13.916Z,11.26
2022-10-18T01:46:48.740Z,11.24
2022-10-18T01:49:21.740Z,11.24
2022-10-18T01:51:55.062Z,11.26
2022-10-18T01:54:32.702Z,11.29
2022-10-18T01:57:13.307Z,11.26
2022-10-18T01:59:54.855Z,11.21
2022-10-18T02:02:43.643Z,11.19
2022-10-18T02:05:26.043Z,11.17
2022-10-18T02:08:22.044Z,11.17
2022-10-18T02:11:00.272Z,11.19
2022-10-18T02:13:38.559Z,11.15
2022-10-18T02:16:15.056Z,11.12
2022-10-18T02:18:53.919Z,11.07
2022-10-18T02:21:29.306Z,11.03
2022-10-18T02:24:03.779Z,11.03
2022-10-18T02:26:36.784Z,11.03
2022-10-18T02:29:10.393Z,11.05
2022-10-18T02:31:46.760Z,11.05
2022-10-18T02:34:23.873Z,11.10
2022-10-18T02:37:00.465Z,11.07
2022-10-18T02:39:37.170Z,11.06
2022-10-18T02:42:12.112Z,11.08
2022-10-18T02:44:44.962Z,11.12
2022-10-18T02:47:17.754Z,11.12
2022-10-18T02:49:51.896Z,11.08
2022-10-18T02:52:24.690Z,11.03
2022-10-18T02:54:57.452Z,11.02
2022-10-18T02:57:30.483Z,11.03
2022-10-18T03:00:04.530Z,11.04
2022-10-18T03:02:37.318Z,10.99
2022-10-18T03:05:11.567Z,11.01
2022-10-18T03:07:44.362Z,10.95
2022-10-18T03:10:17.146Z,10.88
2022-10-18T03:12:49.949Z,10.86
2022-10-18T03:15:22.718Z,10.91
2022-10-18T03:17:55.495Z,10.93
2022-10-18T03:20:29.660Z,10.87
2022-10-18T03:23:03.308Z,10.75
2022-10-18T03:25:36.180Z,10.70
2022-10-18T03:28:08.958Z,10.73
2022-10-18T03:30:41.758Z,10.79
2022-10-18T03:33:14.554Z,10.74
2022-10-18T03:35:48.672Z,10.71
2022-10-18T03:38:21.533Z,10.69
2022-10-18T03:40:54.312Z,10.75
2022-10-18T03:43:27.286Z,10.79
2022-10-18T03:46:00.070Z,10.70
2022-10-18T03:48:33.187Z,10.69
2022-10-18T03:51:07.389Z,10.67
2022-10-18T03:53:40.168Z,10.65
2022-10-18T03:56:12.964Z,10.71
2022-10-18T03:58:45.972Z,10.81
2022-10-18T04:01:18.933Z,10.79
2022-10-18T04:03:51.805Z,10.76
2022-10-18T04:06:26.606Z,10.71
2022-10-18T04:11:35.264Z,10.60
2022-10-18T04:14:08.095Z,10.62
2022-10-18T04:16:40.885Z,10.61
2022-10-18T04:19:13.761Z,10.60
2022-10-18T04:21:46.568Z,10.63
2022-10-18T04:24:22.751Z,10.63
2022-10-18T04:26:56.919Z,10.64
2022-10-18T04:29:29.668Z,10.55
2022-10-18T04:32:02.657Z,10.44
2022-10-18T04:34:35.462Z,10.40
2022-10-18T04:37:08.337Z,10.40
2022-10-18T04:39:41.168Z,10.39
2022-10-18T04:42:15.556Z,10.38
2022-10-18T04:44:48.478Z,10.30
2022-10-18T04:47:21.284Z,10.20
2022-10-18T04:49:54.052Z,10.15
2022-10-18T04:52:26.900Z,10.16
2022-10-18T04:54:59.664Z,10.17
2022-10-18T04:57:34.026Z,10.17
2022-10-18T05:00:08.008Z,10.12
2022-10-18T05:02:40.819Z,10.08
2022-10-18T05:05:14.319Z,10.05
2022-10-18T05:07:47.263Z,10.03
2022-10-18T05:10:20.045Z,10.04
2022-10-18T05:12:54.260Z,10.06
2022-10-18T05:15:27.102Z,10.11
2022-10-18T05:17:59.901Z,10.03
2022-10-18T05:20:32.785Z,10.06
2022-10-18T05:23:05.594Z,10.03
2022-10-18T05:25:39.601Z,10.09
2022-10-18T05:28:38.312Z,10.04
2022-10-18T05:31:08.589Z,10.08
2022-10-18T05:33:41.545Z,10.13
2022-10-18T05:36:14.345Z,10.13
2022-10-18T05:38:48.349Z,10.14
2022-10-18T05:41:21.161Z,10.14
2022-10-18T05:43:55.392Z,10.13
2022-10-18T05:46:28.166Z,10.21
2022-10-18T05:49:01.017Z,10.29
2022-10-18T05:51:33.806Z,10.38
2022-10-18T05:54:06.668Z,10.42
2022-10-18T05:59:18.573Z,10.42
2022-10-18T06:01:51.408Z,10.38
2022-10-18T06:04:24.198Z,10.41
2022-10-18T06:06:57.551Z,10.47
2022-10-18T06:09:30.726Z,10.56
2022-10-18T06:12:03.536Z,10.57
2022-10-18T06:14:38.328Z,10.55
2022-10-18T06:17:11.949Z,10.59
2022-10-18T06:19:45.668Z,10.64
2022-10-18T06:22:18.467Z,10.61
2022-10-18T06:24:56.432Z,10.61
2022-10-18T06:27:31.722Z,10.60
2022-10-18T06:30:07.188Z,10.58
2022-10-18T06:32:39.942Z,10.58
2022-10-18T06:35:12.756Z,10.52
2022-10-18T06:37:45.546Z,10.49
2022-10-18T06:40:18.740Z,10.49
2022-10-18T06:43:00.184Z,10.43
2022-10-18T06:45:40.334Z,10.37
2022-10-18T06:48:13.147Z,10.38
2022-10-18T06:50:52.699Z,10.37
2022-10-18T06:53:26.098Z,10.36
2022-10-18T06:56:01.905Z,10.34
2022-10-18T06:58:35.500Z,10.33
2022-10-18T07:01:11.694Z,10.29
2022-10-18T07:03:45.168Z,10.27
2022-10-18T07:06:19.896Z,10.35
2022-10-18T07:08:54.196Z,10.45
2022-10-18T07:11:28.013Z,10.56
2022-10-18T07:14:04.711Z,10.58
2022-10-18T07:16:38.874Z,10.68
2022-10-18T07:19:12.179Z,10.79
2022-10-18T07:21:44.991Z,10.94
2022-10-18T07:24:17.728Z,11.30
2022-10-18T07:26:50.500Z,12.30
2022-10-18T07:29:23.355Z,13.59
2022-10-18T07:31:57.526Z,14.49
2022-10-18T07:34:30.363Z,14.37
2022-10-18T07:37:03.267Z,13.71
2022-10-18T07:39:36.040Z,13.28
2022-10-18T07:42:08.831Z,12.91
2022-10-18T07:44:41.627Z,12.63
2022-10-18T07:47:16.215Z,12.49
2022-10-18T07:49:49.029Z,12.49
2022-10-18T07:52:21.893Z,12.52
2022-10-18T07:54:55.839Z,12.52
2022-10-18T07:57:28.674Z,12.57
2022-10-18T08:00:01.437Z,12.63
2022-10-18T08:02:35.975Z,12.76
2022-10-18T08:05:09.470Z,12.80
2022-10-18T08:07:42.288Z,12.82
2022-10-18T08:10:15.159Z,12.91
2022-10-18T08:12:48.129Z,13.12
2022-10-18T08:15:23.946Z,13.26
2022-10-18T08:17:58.118Z,13.37
2022-10-18T08:20:33.190Z,13.41
2022-10-18T08:23:06.233Z,13.56
2022-10-18T08:25:39.235Z,13.60
2022-10-18T08:28:13.924Z,13.69
2022-10-18T08:30:46.707Z,13.79
2022-10-18T08:33:20.888Z,13.92
2022-10-18T08:35:56.715Z,14.06
2022-10-18T08:38:30.682Z,14.13
2022-10-18T08:41:16.595Z,14.31
2022-10-18T08:44:01.092Z,14.43
2022-10-18T08:46:38.412Z,14.89
2022-10-18T08:49:23.513Z,15.36
2022-10-18T08:51:57.714Z,16.14
2022-10-18T08:54:36.065Z,16.96
2022-10-18T08:57:18.098Z,17.67
2022-10-18T08:59:50.904Z,18.53
2022-10-18T09:02:50.872Z,19.59
2022-10-18T09:05:31.660Z,20.78
2022-10-18T09:08:37.846Z,21.58
2022-10-18T09:11:26.437Z,21.82
2022-10-18T09:14:26.045Z,21.67
2022-10-18T09:17:15.686Z,21.56
2022-10-18T09:20:03.964Z,21.24
2022-10-18T09:22:52.019Z,20.87
2022-10-18T09:25:26.676Z,20.49
2022-10-18T09:28:15.987Z,20.08
2022-10-18T09:30:59.646Z,19.58
2022-10-18T09:33:44.832Z,19.21
2022-10-18T09:36:22.899Z,18.96
2022-10-18T09:39:03.269Z,18.73
2022-10-18T09:41:43.369Z,18.62
2022-10-18T09:44:22.153Z,18.66
2022-10-18T09:47:00.926Z,18.56
2022-10-18T09:49:41.427Z,18.42
2022-10-18T09:52:19.893Z,18.54
2022-10-18T09:54:57.037Z,18.49
2022-10-18T09:57:36.556Z,18.53
2022-10-18T10:00:16.405Z,18.36
2022-10-18T10:02:49.287Z,18.68
2022-10-18T10:05:22.191Z,18.87
2022-10-18T10:07:59.832Z,18.90
2022-10-18T10:10:35.115Z,18.84
2022-10-18T10:13:16.819Z,19.02
2022-10-18T10:15:55.342Z,19.12
2022-10-18T10:18:32.227Z,18.99
2022-10-18T10:21:08.107Z,19.03
2022-10-18T10:23:47.676Z,19.00
2022-10-18T10:26:26.073Z,19.20
2022-10-18T10:28:59.180Z,19.22
2022-10-18T10:31:32.930Z,19.41
2022-10-18T10:34:07.303Z,19.48
2022-10-18T10:36:48.888Z,19.57
2022-10-18T10:39:23.924Z,19.80
2022-10-18T10:42:01.331Z,19.94
2022-10-18T10:44:37.353Z,20.34
2022-10-18T10:47:10.336Z,20.48
2022-10-18T10:49:47.014Z,20.40
2022-10-18T10:52:29.049Z,20.22
2022-10-18T10:55:23.576Z,20.08
2022-10-18T10:57:58.031Z,20.10
2022-10-18T11:00:42.882Z,20.45
2022-10-18T11:03:28.382Z,20.82
2022-10-18T11:06:02.306Z,21.21
2022-10-18T11:08:43.611Z,21.11
2022-10-18T11:11:26.756Z,20.69
2022-10-18T11:14:24.629Z,20.55
2022-10-18T11:17:08.799Z,20.52
2022-10-18T11:20:13.436Z,20.24
2022-10-18T11:22:58.162Z,20.04
2022-10-18T11:25:46.640Z,20.06
2022-10-18T11:28:27.711Z,20.06
2022-10-18T11:31:13.278Z,19.96
2022-10-18T11:34:09.313Z,20.10
2022-10-18T11:36:56.849Z,19.94
2022-10-18T11:39:58.945Z,20.30
2022-10-18T11:42:40.099Z,20.45
2022-10-18T11:48:37.711Z,20.11
2022-10-18T11:51:20.106Z,20.21
2022-10-18T11:54:12.309Z,20.04
2022-10-18T11:56:53.274Z,20.13
2022-10-18T11:59:33.899Z,20.10
2022-10-18T12:02:32.306Z,20.13
2022-10-18T12:05:23.127Z,20.20
2022-10-18T12:08:03.348Z,20.27
2022-10-18T12:10:52.830Z,20.45
2022-10-18T12:13:37.871Z,20.43
2022-10-18T12:16:12.077Z,20.55
2022-10-18T12:21:35.394Z,20.68
2022-10-18T12:24:14.996Z,20.86
2022-10-18T12:26:51.968Z,21.36
2022-10-18T12:29:31.091Z,21.64
2022-10-18T12:32:10.042Z,21.86
2022-10-18T12:34:45.905Z,22.00
2022-10-18T12:37:38.749Z,22.10
2022-10-18T12:40:18.447Z,21.88
2022-10-18T12:42:54.581Z,21.80
2022-10-18T12:45:33.399Z,21.94
2022-10-18T12:48:08.926Z,21.51
2022-10-18T12:50:44.855Z,21.68
2022-10-18T12:53:26.555Z,21.73
2022-10-18T12:56:44.508Z,21.46
2022-10-18T12:59:47.700Z,21.48
2022-10-18T13:02:26.540Z,21.37
2022-10-18T13:05:02.295Z,21.34
2022-10-18T13:07:41.080Z,21.53
2022-10-18T13:10:42.327Z,21.27
2022-10-18T13:13:45.801Z,21.20
2022-10-18T13:16:37.407Z,21.05
2022-10-18T13:19:33.234Z,20.78
2022-10-18T13:22:20.698Z,20.57
2022-10-18T13:25:04.261Z,20.39
2022-10-18T13:27:47.386Z,20.04
2022-10-18T13:30:32.750Z,20.06
2022-10-18T13:33:23.434Z,20.08
2022-10-18T13:35:58.210Z,20.24
2022-10-18T13:38:57.679Z,20.14
2022-10-18T13:41:35.326Z,20.00
2022-10-18T13:44:25.456Z,20.08
2022-10-18T13:47:33.771Z,20.17
2022-10-18T13:50:25.918Z,20.32
2022-10-18T13:53:20.239Z,20.41
2022-10-18T13:56:03.560Z,20.38
2022-10-18T13:58:53.796Z,20.61
2022-10-18T14:04:46.075Z,20.80
2022-10-18T14:07:20.436Z,20.89
2022-10-18T14:09:56.862Z,20.98
2022-10-18T14:12:39.228Z,20.71
2022-10-18T14:15:19.211Z,20.74
2022-10-18T14:17:55.589Z,20.64
2022-10-18T14:20:34.590Z,20.39
2022-10-18T14:23:22.286Z,20.64
2022-10-18T14:26:06.783Z,20.44
2022-10-18T14:28:58.541Z,20.59
2022-10-18T14:31:31.917Z,20.59
2022-10-18T14:34:04.905Z,20.65
2022-10-18T14:36:42.119Z,20.36
2022-10-18T14:39:21.024Z,20.29
2022-10-18T14:41:55.244Z,20.21
2022-10-18T14:44:29.292Z,20.40
2022-10-18T14:47:04.026Z,20.32
2022-10-18T14:49:43.804Z,20.33
2022-10-18T14:52:21.135Z,20.36
2022-10-18T14:54:59.237Z,20.44
2022-10-18T14:57:35.230Z,20.43
2022-10-18T15:00:17.976Z,20.38
2022-10-18T15:02:50.916Z,20.41
2022-10-18T15:05:26.952Z,20.24
2022-10-18T15:08:01.084Z,20.12
2022-10-18T15:10:36.705Z,20.04
2022-10-18T15:13:12.641Z,20.00
2022-10-18T15:15:46.233Z,19.84
2022-10-18T15:18:23.112Z,19.81
2022-10-18T15:21:10.352Z,19.75
2022-10-18T15:23:43.217Z,19.69
2022-10-18T15:26:24.084Z,19.62
2022-10-18T15:29:01.571Z,19.67
2022-10-18T15:31:44.527Z,19.50
2022-10-18T15:34:21.020Z,19.55
2022-10-18T15:36:56.157Z,19.55
2022-10-18T15:39:31.761Z,19.39
2022-10-18T15:42:05.963Z,19.46
2022-10-18T15:44:51.013Z,19.31
2022-10-18T15:47:25.161Z,19.34
2022-10-18T15:49:59.293Z,19.35
2022-10-18T15:52:51.597Z,19.25
2022-10-18T15:55:47.884Z,19.12
2022-10-18T15:58:23.819Z,19.16
2022-10-18T16:00:59.810Z,19.03
2022-10-18T16:03:35.903Z,19.07
2022-10-18T16:06:13.347Z,19.15
2022-10-18T16:08:51.658Z,18.90
2022-10-18T16:11:26.497Z,18.91
2022-10-18T16:14:00.899Z,18.83
2022-10-18T16:16:34.416Z,18.72
2022-10-18T16:19:07.447Z,18.75
2022-10-18T16:21:40.720Z,18.77
2022-10-18T16:24:13.555Z,18.77
2022-10-18T16:26:46.508Z,18.45
2022-10-18T16:29:24.486Z,18.41
2022-10-18T16:31:58.346Z,18.51
2022-10-18T16:34:32.243Z,18.19
2022-10-18T16:37:05.128Z,18.33
2022-10-18T16:39:38.024Z,18.27
2022-10-18T16:42:10.873Z,18.27
2022-10-18T16:44:45.408Z,18.20
2022-10-18T16:47:18.256Z,18.10
2022-10-18T16:49:51.022Z,17.95
2022-10-18T16:52:23.806Z,17.93
2022-10-18T16:54:56.562Z,17.88
2022-10-18T16:57:29.398Z,17.77
2022-10-18T17:00:03.653Z,17.76
2022-10-18T17:02:36.511Z,17.64
2022-10-18T17:05:09.552Z,17.64
2022-10-18T17:07:42.646Z,17.52
2022-10-18T17:10:17.623Z,17.45
2022-10-18T17:12:50.584Z,17.38
2022-10-18T17:15:24.725Z,17.30
2022-10-18T17:17:59.598Z,17.20
2022-10-18T17:20:32.560Z,17.17
2022-10-18T17:23:05.645Z,17.11
2022-10-18T17:25:46.443Z,17.04
2022-10-18T17:28:30.810Z,16.97
2022-10-18T17:31:07.587Z,16.91
2022-10-18T17:33:40.720Z,16.79
2022-10-18T17:36:13.691Z,16.77
2022-10-18T17:38:48.276Z,16.73
2022-10-18T17:41:21.587Z,16.73
2022-10-18T17:43:54.603Z,16.79
2022-10-18T17:46:28.738Z,16.68
2022-10-18T17:49:01.798Z,16.68
2022-10-18T17:51:34.615Z,16.58
2022-10-18T17:54:08.210Z,16.55
2022-10-18T17:56:41.477Z,16.58
2022-10-18T17:59:14.287Z,16.43
2022-10-18T18:01:48.917Z,16.57
2022-10-18T18:04:21.911Z,16.64
2022-10-18T18:06:57.006Z,16.54
2022-10-18T18:09:30.194Z,16.51
2022-10-18T18:12:03.798Z,16.57
2022-10-18T18:14:36.636Z,16.39
2022-10-18T18:17:11.008Z,16.34
2022-10-18T18:19:43.863Z,16.27
2022-10-18T18:22:16.646Z,16.15
2022-10-18T18:24:49.460Z,16.14
2022-10-18T18:27:22.234Z,16.15
2022-10-18T18:29:56.224Z,16.12
2022-10-18T18:32:30.656Z,15.93
2022-10-18T18:35:05.009Z,15.79
2022-10-18T18:37:37.805Z,15.68
2022-10-18T18:40:11.148Z,15.72
2022-10-18T18:42:43.915Z,15.78
2022-10-18T18:45:16.839Z,15.62
2022-10-18T18:47:51.038Z,15.81
2022-10-18T18:50:23.844Z,15.85
2022-10-18T18:52:58.942Z,15.73
2022-10-18T18:55:32.889Z,15.62
2022-10-18T18:58:05.703Z,15.64
2022-10-18T19:00:43.303Z,15.66
2022-10-18T19:03:18.665Z,15.72
2022-10-18T19:05:51.476Z,15.42
2022-10-18T19:08:24.258Z,15.35
2022-10-18T19:10:57.045Z,15.42
2022-10-18T19:13:30.183Z,15.40
2022-10-18T19:16:20.198Z,15.66
2022-10-18T19:18:59.819Z,15.45
2022-10-18T19:21:35.385Z,15.52
2022-10-18T19:24:08.521Z,15.57
2022-10-18T19:26:44.950Z,15.61
2022-10-18T19:29:21.282Z,15.30
2022-10-18T19:31:56.140Z,15.22
2022-10-18T19:34:31.634Z,15.32
2022-10-18T19:37:05.408Z,15.43
2022-10-18T19:39:38.505Z,15.31
2022-10-18T19:42:16.017Z,15.29
2022-10-18T19:44:51.735Z,15.29
2022-10-18T19:47:24.847Z,15.23
2022-10-18T19:49:59.335Z,15.21
2022-10-18T19:52:32.570Z,15.07
2022-10-18T19:55:06.790Z,15.28
2022-10-18T19:57:39.846Z,15.12
2022-10-18T20:00:17.371Z,15.11
2022-10-18T20:02:52.318Z,14.84
2022-10-18T20:05:26.575Z,14.59
2022-10-18T20:07:59.375Z,14.93
2022-10-18T20:10:32.177Z,14.93
2022-10-18T20:13:05.020Z,15.07
2022-10-18T20:15:37.935Z,15.19
2022-10-18T20:18:10.802Z,15.13
2022-10-18T20:20:48.067Z,14.86
2022-10-18T20:23:21.741Z,15.07
2022-10-18T20:25:58.987Z,14.95
2022-10-18T20:28:31.973Z,15.04
2022-10-18T20:31:06.498Z,14.96
2022-10-18T20:33:40.028Z,15.11
2022-10-18T20:36:16.564Z,14.84
2022-10-18T20:38:50.071Z,15.16
2022-10-18T20:41:24.753Z,15.00
2022-10-18T20:43:59.301Z,14.98
2022-10-18T20:46:34.296Z,14.78
2022-10-18T20:49:08.646Z,14.96
2022-10-18T20:51:43.485Z,15.01
2022-10-18T20:54:16.372Z,15.19
2022-10-18T20:56:49.206Z,15.15
2022-10-18T20:59:21.982Z,14.95
2022-10-18T21:01:54.755Z,15.03
2022-10-18T21:04:27.753Z,15.10
2022-10-18T21:07:01.985Z,14.97
2022-10-18T21:09:35.843Z,15.08
2022-10-18T21:12:08.651Z,14.85
2022-10-18T21:14:41.878Z,14.99
2022-10-18T21:17:14.705Z,14.96
2022-10-18T21:19:47.553Z,14.92
2022-10-18T21:22:21.682Z,14.87
2022-10-18T21:24:54.464Z,14.91
2022-10-18T21:27:27.251Z,14.80
2022-10-18T21:30:00.073Z,14.91
2022-10-18T21:32:33.064Z,14.90
2022-10-18T21:35:07.355Z,14.73
2022-10-18T21:37:41.513Z,14.66
2022-10-18T21:40:14.328Z,14.75
2022-10-18T21:42:47.108Z,14.62
2022-10-18T21:45:19.900Z,14.62
2022-10-18T21:47:52.663Z,14.53
2022-10-18T21:50:25.560Z,14.58
2022-10-18T21:52:59.680Z,14.73
2022-10-18T21:55:32.488Z,14.60
2022-10-18T21:58:05.724Z,14.57
2022-10-18T22:00:39.939Z,14.69
2022-10-18T22:03:15.963Z,14.62
2022-10-18T22:05:48.747Z,14.61
2022-10-18T22:08:23.957Z,14.56
2022-10-18T22:10:58.590Z,14.57
2022-10-18T22:13:31.441Z,14.48
2022-10-18T22:16:05.777Z,14.38
2022-10-18T22:18:38.565Z,14.47
2022-10-18T22:21:13.432Z,14.40
2022-10-18T22:23:49.506Z,14.14
2022-10-18T22:26:23.881Z,14.11
2022-10-18T22:28:58.531Z,14.35
2022-10-18T22:31:33.322Z,14.37
2022-10-18T22:34:08.239Z,14.23
2022-10-18T22:36:41.211Z,14.25
2022-10-18T22:39:16.780Z,14.09
2022-10-18T22:41:55.694Z,14.17
2022-10-18T22:44:29.641Z,14.31
2022-10-18T22:47:02.930Z,14.30
2022-10-18T22:49:35.725Z,14.33
2022-10-18T22:52:08.496Z,14.09
2022-10-18T22:54:43.170Z,14.23
2022-10-18T22:57:15.951Z,14.23
2022-10-18T22:59:48.722Z,14.47
2022-10-18T23:02:21.534Z,14.43
2022-10-18T23:04:54.296Z,14.37
2022-10-18T23:07:27.103Z,14.35
2022-10-18T23:10:01.220Z,14.36
2022-10-18T23:12:34.283Z,14.48
2022-10-18T23:15:08.380Z,14.51
2022-10-18T23:17:41.175Z,14.35
2022-10-18T23:20:14.005Z,13.92
2022-10-18T23:22:46.959Z,14.35
2022-10-18T23:25:21.153Z,14.35
2022-10-18T23:27:54.156Z,14.43
2022-10-18T23:30:26.936Z,14.41
2022-10-18T23:32:59.765Z,14.55
2022-10-18T23:35:32.525Z,14.49
2022-10-18T23:38:05.368Z,14.26
2022-10-18T23:40:39.507Z,14.25
2022-10-18T23:43:12.272Z,14.29
2022-10-18T23:48:19.327Z,14.01
2022-10-18T23:50:52.373Z,14.34
2022-10-18T23:53:25.461Z,14.33
2022-10-18T23:56:01.516Z,14.30
2022-10-18T23:58:35.733Z,14.15
